Time;durP1;ratioP1;P1;durP2;ratioP2;P2;SDS_P1;SDS_P2;PMS_P1;PMS_P2;Temp;Humidity;BMP_temperature;BMP_pressure;BME280_temperature;BME280_humidity;BME280_pressure;Samples;Min_cycle;Max_cycle;Signal;HPM_P1;HPM_P2
2021/12/25 00:02:07;;;;;;;11.32;5.95;;;;;;;12.38;66.85;97776.00;5091512;28;20065;-51
2021/12/25 00:04:33;;;;;;;8.55;7.40;;;;;;;12.27;66.83;97780.25;5093327;28;20024;-51
2021/12/25 00:06:59;;;;;;;10.55;6.15;;;;;;;12.23;67.22;97792.25;5095425;28;20072;-51
2021/12/25 00:09:25;;;;;;;6.65;5.50;;;;;;;12.23;66.72;97787.00;5095371;28;20110;-51
2021/12/25 00:11:51;;;;;;;6.93;5.45;;;;;;;12.23;67.15;97784.38;5095518;28;20039;-51
2021/12/25 00:14:17;;;;;;;10.40;7.90;;;;;;;12.29;67.02;97775.56;5095207;28;20553;-52
2021/12/25 00:16:43;;;;;;;8.60;6.30;;;;;;;12.22;66.90;97768.84;5094134;28;20028;-52
2021/12/25 00:19:09;;;;;;;9.02;7.15;;;;;;;12.09;67.13;97769.88;5093750;28;20024;-51
2021/12/25 00:21:35;;;;;;;19.05;17.05;;;;;;;11.92;67.36;97769.81;5095092;28;20020;-51
2021/12/25 00:24:03;;;;;;;7.47;6.70;;;;;;;11.89;67.46;97767.63;5095054;28;20024;-51
2021/12/25 00:26:46;;;;;;;23.08;15.43;;;;;;;12.03;67.07;97762.94;5095008;28;20031;-51
2021/12/25 00:31:55;;;;;;;63.90;56.45;;;;;;;11.94;67.64;97755.41;5094590;28;20056;-51
2021/12/25 00:34:23;;;;;;;17.88;13.85;;;;;;;12.05;67.44;97755.59;5094904;28;20031;-50
2021/12/25 00:36:50;;;;;;;12.05;10.70;;;;;;;12.09;67.06;97757.56;5093484;28;20043;-51
2021/12/25 00:39:16;;;;;;;38.30;16.88;;;;;;;12.13;66.45;97749.97;5094730;28;20437;-51
2021/12/25 00:41:42;;;;;;;9.93;7.53;;;;;;;12.15;66.64;97740.03;5094632;28;20116;-51
2021/12/25 00:44:07;;;;;;;9.10;7.63;;;;;;;12.21;66.33;97733.03;5094707;28;20020;-51
2021/12/25 00:46:33;;;;;;;8.73;6.50;;;;;;;12.23;66.01;97739.66;5094632;28;20016;-51
2021/12/25 00:48:59;;;;;;;9.93;6.65;;;;;;;12.22;66.11;97742.53;5094518;28;20079;-51
2021/12/25 00:51:25;;;;;;;9.07;7.00;;;;;;;12.23;66.03;97736.22;5094563;28;20021;-51
2021/12/25 00:53:51;;;;;;;7.03;5.20;;;;;;;12.33;65.79;97736.41;5094505;28;20103;-51
2021/12/25 00:56:17;;;;;;;8.77;6.55;;;;;;;12.20;65.84;97732.25;5094365;28;20022;-49
2021/12/25 00:58:42;;;;;;;6.40;5.55;;;;;;;12.03;65.45;97732.16;5094349;28;20394;-51
2021/12/25 01:01:08;;;;;;;7.38;5.68;;;;;;;11.80;66.52;97725.13;5094350;28;20482;-51
2021/12/25 01:03:34;;;;;;;21.45;16.80;;;;;;;11.88;67.22;97732.63;5092962;28;20027;-51
2021/12/25 01:05:59;;;;;;;10.52;9.35;;;;;;;12.12;65.79;97725.53;5094189;28;20394;-51
2021/12/25 01:08:25;;;;;;;8.35;6.57;;;;;;;12.13;65.54;97740.28;5094233;28;20056;-50
2021/12/25 01:10:52;;;;;;;9.68;7.38;;;;;;;12.10;64.88;97730.22;5094116;28;20037;-51
2021/12/25 01:13:30;;;;;;;8.60;6.07;;;;;;;11.80;65.27;97725.13;5094123;28;20047;-51
2021/12/25 01:16:11;;;;;;;9.27;7.32;;;;;;;11.58;66.45;97730.97;5093852;28;20028;-50
2021/12/25 01:31:42;;;;;;;8.10;6.53;;;;;;;11.42;66.80;97709.84;5093528;28;20051;-51
2021/12/25 01:37:04;;;;;;;13.88;8.82;;;;;;;11.55;66.82;97699.09;5093711;28;20039;-51
2021/12/25 01:39:48;;;;;;;9.07;8.07;;;;;;;11.71;66.70;97692.31;5092628;28;20534;-51
2021/12/25 01:47:52;;;;;;;8.90;7.20;;;;;;;11.30;66.75;97691.47;5093538;28;20038;-51
2021/12/25 01:50:28;;;;;;;12.05;7.43;;;;;;;11.25;67.50;97693.97;5093481;28;20379;-51
2021/12/25 01:52:56;;;;;;;10.23;7.93;;;;;;;11.24;67.52;97695.81;5093371;28;20028;-51
2021/12/25 01:55:29;;;;;;;9.30;6.28;;;;;;;11.17;67.99;97695.13;5093285;28;20071;-50
2021/12/25 01:57:58;;;;;;;12.35;10.77;;;;;;;11.23;67.86;97693.41;5093123;28;20031;-51
2021/12/25 02:00:40;;;;;;;8.52;5.82;;;;;;;11.22;68.10;97687.34;5093184;28;20464;-50
2021/12/25 02:03:09;;;;;;;9.98;8.63;;;;;;;11.30;67.79;97696.72;5093151;28;20107;-51
2021/12/25 02:05:36;;;;;;;10.98;7.90;;;;;;;11.41;67.76;97685.41;5093057;28;20024;-50
2021/12/25 02:08:02;;;;;;;10.50;7.75;;;;;;;11.54;67.39;97687.00;5092997;28;20080;-50
2021/12/25 02:10:28;;;;;;;15.90;8.65;;;;;;;11.82;67.09;97691.50;5093024;28;20016;-51
2021/12/25 02:12:54;;;;;;;11.20;7.97;;;;;;;12.27;65.89;97690.00;5092923;28;20154;-51
2021/12/25 02:15:23;;;;;;;12.20;6.75;;;;;;;12.41;65.09;97687.88;5092961;28;20067;-51
2021/12/25 02:18:10;;;;;;;11.45;8.07;;;;;;;12.42;64.95;97687.66;5091581;28;20526;-52
2021/12/25 02:20:48;;;;;;;7.20;5.78;;;;;;;12.65;63.73;97685.94;5092858;28;20024;-51
2021/12/25 02:23:19;;;;;;;14.73;8.85;;;;;;;12.45;63.75;97687.16;5092842;28;20028;-51
2021/12/25 02:25:46;;;;;;;7.55;6.28;;;;;;;12.24;64.02;97682.59;5092140;28;20020;-51
2021/12/25 02:28:14;;;;;;;7.85;6.32;;;;;;;12.17;63.96;97688.00;5092686;28;20055;-51
2021/12/25 02:30:42;;;;;;;17.00;12.65;;;;;;;11.96;64.22;97678.94;5092604;28;20024;-51
2021/12/25 02:33:07;;;;;;;9.15;6.55;;;;;;;11.61;64.60;97674.53;5092345;28;20036;-51
2021/12/25 02:35:33;;;;;;;10.82;7.13;;;;;;;11.34;65.46;97674.22;5092533;28;20013;-51
2021/12/25 02:37:59;;;;;;;14.63;9.32;;;;;;;11.47;66.15;97678.44;5091104;28;20024;-51
2021/12/25 02:40:25;;;;;;;13.55;9.52;;;;;;;11.73;65.79;97674.50;5092448;28;20017;-51
2021/12/25 02:42:52;;;;;;;11.63;6.43;;;;;;;11.83;65.05;97663.38;5092476;28;20042;-51
2021/12/25 02:45:20;;;;;;;9.27;6.15;;;;;;;11.86;64.65;97673.44;5092433;28;20023;-50
2021/12/25 02:47:48;;;;;;;13.80;10.32;;;;;;;11.65;64.17;97669.59;5092349;28;20106;-51
2021/12/25 02:50:29;;;;;;;17.27;9.43;;;;;;;11.42;65.61;97665.19;5092287;28;20024;-51
2021/12/25 02:52:57;;;;;;;13.50;9.68;;;;;;;11.67;64.79;97663.09;5092312;28;20049;-51
2021/12/25 02:55:24;;;;;;;9.55;7.50;;;;;;;11.53;64.51;97667.00;5092199;28;20020;-51
2021/12/25 02:57:52;;;;;;;15.13;13.52;;;;;;;11.26;64.93;97664.06;5092280;28;20024;-51
2021/12/25 03:00:28;;;;;;;10.55;8.68;;;;;;;10.98;65.15;97653.22;5092231;28;20496;-51
2021/12/25 03:02:54;;;;;;;14.98;9.43;;;;;;;10.74;66.15;97657.66;5092236;28;20047;-51
2021/12/25 03:05:20;;;;;;;10.55;9.20;;;;;;;10.52;66.49;97654.78;5092110;28;20027;-51
2021/12/25 03:07:46;;;;;;;11.68;8.05;;;;;;;10.44;67.29;97649.03;5090765;28;20020;-51
2021/12/25 03:10:14;;;;;;;8.48;7.32;;;;;;;10.55;67.07;97650.91;5091981;28;20107;-51
2021/12/25 03:15:46;;;;;;;15.02;10.57;;;;;;;10.42;67.33;97637.97;5054392;28;20148;-51
2021/12/25 03:18:16;;;;;;;25.88;23.27;;;;;;;10.79;66.99;97644.66;5091904;28;20522;-51
2021/12/25 03:20:45;;;;;;;11.55;10.35;;;;;;;10.99;66.00;97643.53;5091976;28;20063;-51
2021/12/25 03:23:16;;;;;;;7.50;6.70;;;;;;;10.74;65.85;97651.59;5091803;28;20028;-51
2021/12/25 03:25:44;;;;;;;44.13;39.05;;;;;;;10.47;66.12;97644.16;5091815;28;20406;-51
2021/12/25 03:28:10;;;;;;;12.60;10.38;;;;;;;10.17;67.19;97644.16;5091856;28;20501;-51
2021/12/25 03:30:39;;;;;;;11.18;7.28;;;;;;;9.99;67.73;97651.03;5091825;28;20103;-51
2021/12/25 03:33:06;;;;;;;16.48;13.52;;;;;;;9.93;68.06;97645.91;5091621;28;20044;-51
2021/12/25 03:35:34;;;;;;;10.38;8.95;;;;;;;9.99;68.11;97643.19;5092030;28;20077;-51
2021/12/25 03:38:01;;;;;;;8.50;7.60;;;;;;;10.08;67.85;97651.56;5093788;28;20020;-50
2021/12/25 03:40:28;;;;;;;9.98;8.45;;;;;;;10.12;67.15;97654.50;5095878;28;20073;-51
2021/12/25 03:42:54;;;;;;;11.88;7.75;;;;;;;10.17;66.81;97652.81;5095878;28;20023;-51
2021/12/25 03:45:20;;;;;;;10.45;7.25;;;;;;;10.25;65.95;97662.19;5095807;28;20020;-51
2021/12/25 03:47:48;;;;;;;11.45;7.68;;;;;;;10.30;66.17;97656.31;5095763;28;20418;-51
2021/12/25 03:53:09;;;;;;;11.68;8.07;;;;;;;10.52;64.86;97651.34;5095715;28;20071;-51
2021/12/25 03:58:25;;;;;;;11.18;9.88;;;;;;;10.46;64.25;97641.75;5095789;28;20030;-51
2021/12/25 04:00:58;;;;;;;11.70;8.52;;;;;;;10.52;63.94;97638.22;5095556;28;20396;-51
2021/12/25 04:03:38;;;;;;;12.93;9.35;;;;;;;10.58;63.41;97632.91;5095512;28;20055;-49
2021/12/25 04:06:08;;;;;;;9.82;7.70;;;;;;;10.71;62.89;97623.22;5095458;28;20020;-51
2021/12/25 04:08:41;;;;;;;19.40;8.32;;;;;;;10.59;62.41;97628.44;5095407;28;20056;-51
2021/12/25 04:11:13;;;;;;;8.63;7.38;;;;;;;10.44;62.86;97628.06;5095319;28;20024;-51
2021/12/25 04:13:39;;;;;;;11.85;8.43;;;;;;;10.28;63.11;97647.84;5095365;28;20040;-50
2021/12/25 04:16:05;;;;;;;10.82;7.43;;;;;;;10.12;63.26;97654.50;5095167;28;20024;-51
2021/12/25 04:18:31;;;;;;;9.25;8.15;;;;;;;10.06;63.62;97658.00;5095131;28;20111;-51
2021/12/25 04:20:56;;;;;;;11.07;9.20;;;;;;;9.98;63.24;97656.53;5095131;28;20091;-51
2021/12/25 04:23:27;;;;;;;9.95;7.50;;;;;;;9.97;63.36;97657.53;5095081;28;20028;-50
2021/12/25 04:25:56;;;;;;;11.90;8.95;;;;;;;9.95;63.31;97652.50;5095072;28;20024;-50
2021/12/25 04:28:38;;;;;;;11.90;8.88;;;;;;;10.15;62.94;97641.75;5094951;28;20024;-51
2021/12/25 05:01:46;;;;;;;10.90;7.80;;;;;;;10.57;63.42;97633.91;5094491;28;20061;-51
2021/12/25 05:03:54;;;;;;;8.55;6.53;;;;;;;10.33;63.35;97640.94;5094673;28;20098;-51
2021/12/25 05:06:23;;;;;;;10.27;6.38;;;;;;;10.24;63.22;97634.41;5094328;28;20120;-51
2021/12/25 05:08:53;;;;;;;8.68;6.45;;;;;;;10.15;63.50;97638.34;5094237;28;20085;-51
2021/12/25 05:11:19;;;;;;;9.95;8.27;;;;;;;10.07;63.30;97636.84;5092848;28;20082;-51
2021/12/25 05:13:46;;;;;;;13.35;11.50;;;;;;;9.98;63.64;97632.94;5094177;28;20028;-51
2021/12/25 05:16:13;;;;;;;14.23;9.68;;;;;;;10.07;63.78;97631.59;5094089;28;20020;-51
2021/12/25 05:18:39;;;;;;;12.05;7.47;;;;;;;10.27;63.72;97630.50;5093926;28;20492;-51
2021/12/25 05:21:06;;;;;;;9.18;6.60;;;;;;;10.45;63.22;97627.84;5093975;28;20489;-51
2021/12/25 05:23:32;;;;;;;7.43;5.70;;;;;;;10.32;62.51;97622.78;5094035;28;20453;-51
2021/12/25 05:25:58;;;;;;;7.30;6.50;;;;;;;9.93;62.87;97630.16;5093895;28;20022;-51
2021/12/25 05:28:26;;;;;;;9.98;6.85;;;;;;;9.50;63.69;97633.72;5093826;28;20081;-51
2021/12/25 05:30:53;;;;;;;19.05;17.05;;;;;;;9.13;64.55;97621.41;5093837;28;20052;-52
2021/12/25 05:33:21;;;;;;;10.73;9.52;;;;;;;8.78;66.61;97626.38;5093700;28;20091;-51
2021/12/25 05:35:48;;;;;;;13.40;9.40;;;;;;;8.75;67.42;97624.19;5093724;28;20048;-51
2021/12/25 05:38:15;;;;;;;8.63;6.88;;;;;;;9.14;66.79;97632.69;5093589;28;20039;-51
2021/12/25 05:40:46;;;;;;;8.32;6.30;;;;;;;9.42;65.62;97632.19;5093575;28;20024;-50
2021/12/25 05:43:12;;;;;;;9.73;7.20;;;;;;;9.57;64.81;97626.59;5093527;28;20024;-51
2021/12/25 05:45:38;;;;;;;8.70;6.63;;;;;;;9.44;64.72;97630.16;5093433;28;20020;-51
2021/12/25 05:48:05;;;;;;;10.65;6.63;;;;;;;9.50;64.73;97633.72;5093470;28;20540;-50
2021/12/25 05:50:31;;;;;;;11.68;9.18;;;;;;;9.58;64.15;97630.81;5093358;28;20021;-50
2021/12/25 05:52:57;;;;;;;11.85;10.65;;;;;;;9.60;64.05;97632.19;5093380;28;20037;-51
2021/12/25 05:55:24;;;;;;;13.23;9.85;;;;;;;9.67;63.76;97626.06;5093324;28;20032;-51
2021/12/25 05:57:50;;;;;;;12.15;10.15;;;;;;;9.78;63.59;97633.19;5093332;28;20016;-51
2021/12/25 06:00:17;;;;;;;14.00;12.50;;;;;;;9.74;62.71;97626.81;5092697;28;20035;-51
2021/12/25 06:02:45;;;;;;;10.05;7.63;;;;;;;9.49;63.38;97619.81;5092607;28;20490;-52
2021/12/25 06:05:11;;;;;;;30.17;26.73;;;;;;;9.33;63.84;97617.78;5093171;28;20020;-51
2021/12/25 06:07:37;;;;;;;12.43;9.77;;;;;;;9.39;64.01;97619.53;5093125;28;20502;-51
2021/12/25 06:10:06;;;;;;;9.60;8.60;;;;;;;9.53;63.03;97622.81;5091721;28;20400;-51
2021/12/25 06:12:33;;;;;;;11.68;8.38;;;;;;;9.60;62.83;97618.28;5092957;28;20028;-51
2021/12/25 06:15:02;;;;;;;10.98;8.10;;;;;;;9.60;62.77;97623.53;5091657;28;20028;-50
2021/12/25 06:17:27;;;;;;;11.25;8.55;;;;;;;9.66;62.22;97625.28;5092891;28;20020;-51
2021/12/25 06:19:53;;;;;;;13.90;9.48;;;;;;;9.48;62.60;97615.63;5091497;28;20026;-50
2021/12/25 06:22:19;;;;;;;12.88;10.10;;;;;;;9.47;62.60;97623.69;5091469;28;20032;-51
2021/12/25 06:24:49;;;;;;;13.13;11.40;;;;;;;9.40;62.82;97634.25;5092707;28;20028;-51
2021/12/25 06:27:20;;;;;;;14.02;10.25;;;;;;;9.45;62.70;97626.50;5092728;28;20020;-51
2021/12/25 06:29:47;;;;;;;15.32;10.48;;;;;;;9.40;63.11;97624.56;5092700;28;20024;-51
2021/12/25 06:32:13;;;;;;;14.10;10.93;;;;;;;9.47;63.09;97623.69;5092405;28;20036;-50
2021/12/25 06:34:39;;;;;;;13.27;11.68;;;;;;;9.44;62.50;97618.88;5092610;28;20020;-51
2021/12/25 06:37:05;;;;;;;38.08;31.95;;;;;;;9.37;63.34;97626.81;5092531;28;20099;-50
2021/12/25 06:39:31;;;;;;;19.85;17.75;;;;;;;9.39;63.01;97636.03;5092436;28;20104;-50
2021/12/25 06:41:58;;;;;;;13.68;11.57;;;;;;;9.30;63.22;97631.34;5092515;28;20028;-51
2021/12/25 06:44:25;;;;;;;14.73;10.77;;;;;;;9.36;63.77;97627.84;5092393;28;20027;-51
2021/12/25 06:46:54;;;;;;;12.90;9.95;;;;;;;9.54;62.97;97627.03;5092401;28;20016;-52
2021/12/25 06:49:21;;;;;;;13.77;11.10;;;;;;;9.50;62.74;97633.72;5092391;28;20035;-51
2021/12/25 06:51:48;;;;;;;13.57;10.82;;;;;;;9.53;62.84;97635.91;5092557;28;20512;-51
2021/12/25 06:54:14;;;;;;;14.88;11.00;;;;;;;9.69;62.52;97635.28;5092299;28;20028;-51
2021/12/25 06:56:40;;;;;;;14.90;11.32;;;;;;;10.06;62.73;97629.19;5092189;28;20032;-51
2021/12/25 06:59:06;;;;;;;13.68;11.38;;;;;;;10.59;61.71;97628.44;5092122;28;20020;-51
2021/12/25 07:01:32;;;;;;;14.50;10.68;;;;;;;10.77;60.42;97622.31;5090844;28;20187;-51
2021/12/25 07:03:58;;;;;;;13.35;10.57;;;;;;;10.73;59.46;97629.03;5092376;28;20113;-51
2021/12/25 07:06:24;;;;;;;16.80;11.07;;;;;;;10.50;59.79;97627.97;5092092;28;20020;-51
2021/12/25 07:08:50;;;;;;;28.75;22.58;;;;;;;10.37;60.88;97621.09;5092046;28;20494;-51
2021/12/25 07:11:16;;;;;;;19.38;12.43;;;;;;;10.57;60.42;97633.13;5092032;28;20020;-50
2021/12/25 07:13:44;;;;;;;15.82;10.13;;;;;;;10.78;59.78;97627.34;5091771;28;20028;-51
2021/12/25 07:16:11;;;;;;;17.15;12.98;;;;;;;10.92;59.56;97621.84;5091995;28;20020;-51
2021/12/25 07:18:37;;;;;;;17.88;11.00;;;;;;;10.93;59.32;97619.00;5091921;28;20431;-51
2021/12/25 07:21:04;;;;;;;11.90;9.77;;;;;;;10.90;59.37;97619.44;5091871;28;20031;-51
2021/12/25 07:23:30;;;;;;;17.67;10.95;;;;;;;11.23;59.03;97623.31;5091894;28;20067;-51
2021/12/25 07:25:56;;;;;;;19.80;17.70;;;;;;;11.44;58.14;97619.25;5091891;28;20399;-51
2021/12/25 07:28:22;;;;;;;18.98;11.73;;;;;;;11.40;58.23;97623.38;5091895;28;20043;-51
2021/12/25 07:30:50;;;;;;;20.38;15.90;;;;;;;11.22;58.04;97626.16;5091812;28;20069;-51
2021/12/25 07:33:18;;;;;;;12.45;9.55;;;;;;;11.18;57.68;97628.44;5091573;28;20036;-51
2021/12/25 07:35:44;;;;;;;18.30;12.82;;;;;;;11.26;58.16;97624.66;5091678;28;20031;-51
2021/12/25 07:38:09;;;;;;;13.75;10.10;;;;;;;11.33;57.74;97626.16;5091780;28;20024;-51
2021/12/25 07:40:35;;;;;;;13.35;10.52;;;;;;;11.35;57.34;97626.72;5090359;28;20027;-51
2021/12/25 07:43:01;;;;;;;23.35;10.80;;;;;;;11.29;57.49;97627.63;5091779;28;20030;-51
2021/12/25 07:45:27;;;;;;;19.10;13.07;;;;;;;11.29;57.51;97622.38;5091753;28;20488;-51
2021/12/25 07:47:59;;;;;;;12.65;10.75;;;;;;;11.30;57.73;97625.81;5091681;28;20016;-51
2021/12/25 07:50:27;;;;;;;13.68;11.07;;;;;;;11.16;57.96;97622.63;5091794;28;20081;-50
2021/12/25 07:52:53;;;;;;;14.82;12.68;;;;;;;11.18;58.21;97621.34;5091668;28;20016;-51
2021/12/25 07:55:19;;;;;;;17.48;11.18;;;;;;;11.10;58.14;97619.09;5091632;28;20044;-52
2021/12/25 07:57:45;;;;;;;14.70;12.52;;;;;;;10.81;58.33;97610.31;5091643;28;20104;-51
2021/12/25 08:00:13;;;;;;;19.00;13.95;;;;;;;10.51;59.08;97620.91;5091502;28;20020;-51
2021/12/25 08:02:40;;;;;;;31.42;26.48;;;;;;;10.32;60.25;97620.16;5091582;28;20397;-50
2021/12/25 08:05:07;;;;;;;14.98;11.90;;;;;;;10.32;60.83;97615.75;5091515;28;20048;-51
2021/12/25 08:07:33;;;;;;;13.02;10.10;;;;;;;10.46;60.49;97621.56;5091519;28;20098;-51
2021/12/25 08:10:12;;;;;;;11.98;10.40;;;;;;;10.55;60.37;97612.34;5091783;28;20040;-51
2021/12/25 08:12:43;;;;;;;139.48;124.75;;;;;;;10.41;60.06;97607.53;5090160;28;20424;-51
2021/12/25 08:15:10;;;;;;;21.42;18.00;;;;;;;10.35;60.59;97607.41;5090163;28;20024;-51
2021/12/25 08:17:36;;;;;;;14.13;11.15;;;;;;;10.15;60.75;97602.44;5090123;28;20059;-51
2021/12/25 08:20:02;;;;;;;18.60;15.98;;;;;;;9.98;60.99;97602.28;5089983;28;20056;-51
2021/12/25 08:22:28;;;;;;;15.18;12.05;;;;;;;9.88;61.70;97602.00;5091475;28;20394;-51
2021/12/25 08:24:53;;;;;;;14.15;9.57;;;;;;;10.11;61.51;97608.34;5091661;28;20021;-51
2021/12/25 08:27:19;;;;;;;39.45;32.88;;;;;;;10.29;61.07;97608.28;5095034;28;20048;-51
2021/12/25 08:29:45;;;;;;;19.55;12.38;;;;;;;10.31;60.77;97601.03;5095065;28;20031;-51
2021/12/25 08:32:11;;;;;;;23.55;17.40;;;;;;;10.15;61.37;97606.88;5094649;28;20044;-51
2021/12/25 08:34:40;;;;;;;19.38;16.17;;;;;;;10.11;61.26;97605.72;5094964;28;20110;-50
2021/12/25 08:37:06;;;;;;;14.75;13.25;;;;;;;10.17;61.53;97600.38;5094821;28;20530;-51
2021/12/25 08:39:32;;;;;;;14.52;9.75;;;;;;;10.26;61.39;97605.31;5093435;28;20182;-51
2021/12/25 08:42:03;;;;;;;16.02;10.40;;;;;;;10.42;60.96;97609.13;5094779;28;20178;-51
2021/12/25 08:44:40;;;;;;;17.98;10.45;;;;;;;10.48;60.37;97606.41;5094793;28;20020;-51
2021/12/25 08:47:09;;;;;;;19.85;11.38;;;;;;;10.62;60.95;97601.75;5094744;28;20080;-51
2021/12/25 08:49:38;;;;;;;13.77;11.07;;;;;;;10.64;60.04;97609.38;5093281;28;20538;-52
2021/12/25 08:52:08;;;;;;;17.38;11.23;;;;;;;10.40;60.71;97606.72;5094535;28;20103;-51
2021/12/25 08:54:34;;;;;;;12.88;11.45;;;;;;;10.33;60.64;97600.81;5094575;28;20405;-51
2021/12/25 08:57:01;;;;;;;13.80;9.73;;;;;;;10.14;61.18;97606.09;5094421;28;20031;-51
2021/12/25 08:59:28;;;;;;;12.70;10.20;;;;;;;10.07;61.37;97610.63;5094376;28;20068;-51
2021/12/25 09:01:54;;;;;;;12.80;8.52;;;;;;;10.18;61.24;97602.00;5094364;28;20027;-51
2021/12/25 09:04:21;;;;;;;10.00;6.47;;;;;;;10.44;60.61;97588.72;5094361;28;20107;-51
2021/12/25 09:06:46;;;;;;;140.70;85.72;;;;;;;10.47;60.40;97580.41;5109930;28;20020;-52
2021/12/25 09:09:12;;;;;;;25.45;19.75;;;;;;;10.44;60.18;97584.25;5092939;28;20047;-52
2021/12/25 09:11:39;;;;;;;43.80;30.90;;;;;;;10.45;61.00;97587.72;5094236;28;20024;-51
2021/12/25 09:14:06;;;;;;;27.30;15.80;;;;;;;10.79;60.32;97583.50;5094182;28;20070;-52
2021/12/25 09:16:32;;;;;;;20.80;16.48;;;;;;;11.06;58.92;97581.19;5092817;28;20028;-51
2021/12/25 09:18:59;;;;;;;15.50;12.75;;;;;;;11.08;58.57;97570.47;5093997;28;20045;-51
2021/12/25 09:21:25;;;;;;;12.25;9.50;;;;;;;10.83;59.00;97574.16;5092691;28;20024;-51
2021/12/25 09:23:51;;;;;;;18.13;9.88;;;;;;;10.58;60.23;97587.47;5093974;28;20058;-51
2021/12/25 09:26:17;;;;;;;16.65;10.48;;;;;;;10.74;60.87;97581.53;5093871;28;20036;-51
2021/12/25 09:28:45;;;;;;;13.43;9.93;;;;;;;11.26;60.09;97601.81;5093881;28;20030;-51
2021/12/25 09:31:11;;;;;;;22.73;19.52;;;;;;;11.75;58.60;97589.13;5093800;28;20035;-51
2021/12/25 09:33:37;;;;;;;15.32;10.77;;;;;;;12.07;58.18;97591.28;5092306;28;20052;-51
2021/12/25 09:36:03;;;;;;;11.60;8.00;;;;;;;12.42;57.09;97602.66;5093562;28;20490;-51
2021/12/25 09:38:30;;;;;;;15.23;10.07;;;;;;;12.57;56.51;97606.31;5093612;28;20405;-51
2021/12/25 09:40:57;;;;;;;21.70;13.60;;;;;;;12.54;57.11;97598.13;5092307;28;20024;-51
2021/12/25 09:43:23;;;;;;;20.20;9.30;;;;;;;12.37;59.07;97600.72;5093614;28;20394;-50
2021/12/25 09:45:49;;;;;;;16.95;8.55;;;;;;;12.54;58.44;97614.69;5093461;28;20394;-51
2021/12/25 09:48:15;;;;;;;11.82;7.25;;;;;;;12.60;57.31;97620.84;5093474;28;20028;-51
2021/12/25 09:50:41;;;;;;;19.77;11.40;;;;;;;12.56;57.47;97625.78;5092123;28;20020;-51
2021/12/25 09:53:09;;;;;;;13.70;10.30;;;;;;;12.52;56.84;97622.03;5092044;28;20379;-51
2021/12/25 09:55:35;;;;;;;11.13;9.90;;;;;;;12.18;56.75;97622.00;5092037;28;20016;-51
2021/12/25 09:58:01;;;;;;;19.73;12.75;;;;;;;11.95;57.49;97619.47;5093343;28;20138;-50
2021/12/25 10:00:27;;;;;;;15.70;10.30;;;;;;;11.90;57.87;97620.19;5091900;28;20103;-51
2021/12/25 10:02:57;;;;;;;19.05;13.07;;;;;;;11.83;58.09;97619.50;5093241;28;20107;-50
2021/12/25 10:05:35;;;;;;;12.98;10.95;;;;;;;11.64;60.18;97620.72;5093111;28;20024;-50
2021/12/25 10:08:15;;;;;;;11.82;10.00;;;;;;;11.56;62.25;97624.50;5093164;28;20507;-51
2021/12/25 10:10:49;;;;;;;16.52;11.70;;;;;;;11.50;62.60;97628.84;5093153;28;20024;-51
2021/12/25 10:13:39;;;;;;;12.30;8.02;;;;;;;11.55;62.96;97623.72;5093059;28;20052;-50
2021/12/25 10:16:25;;;;;;;12.23;8.93;;;;;;;11.53;62.56;97623.13;5092928;28;20035;-51
2021/12/25 10:18:53;;;;;;;12.68;8.30;;;;;;;11.70;62.33;97622.41;5091565;28;20024;-51
2021/12/25 10:21:22;;;;;;;14.55;9.02;;;;;;;12.08;61.29;97621.81;5093114;28;20059;-51
2021/12/25 10:24:06;;;;;;;15.77;10.10;;;;;;;12.67;60.59;97615.41;5092838;28;20019;-51
2021/12/25 10:26:35;;;;;;;14.73;9.57;;;;;;;12.95;59.47;97607.41;5092755;28;20024;-52
2021/12/25 10:29:21;;;;;;;13.20;10.40;;;;;;;13.36;58.22;97607.16;5092756;28;20059;-51
2021/12/25 10:31:48;;;;;;;13.13;9.88;;;;;;;13.53;57.14;97607.13;5092509;28;20075;-51
2021/12/25 10:34:26;;;;;;;14.32;9.70;;;;;;;13.39;57.55;97599.59;5092680;28;20424;-51
2021/12/25 10:36:52;;;;;;;13.95;9.27;;;;;;;13.34;56.80;97598.72;5092605;28;20028;-51
2021/12/25 10:39:22;;;;;;;12.75;9.20;;;;;;;13.42;57.38;97594.84;5092543;28;20479;-51
2021/12/25 10:42:09;;;;;;;10.65;8.27;;;;;;;13.58;56.64;97594.00;5092465;28;20149;-52
2021/12/25 10:44:37;;;;;;;11.82;7.65;;;;;;;13.60;56.34;97597.19;5092524;28;20516;-51
2021/12/25 10:47:13;;;;;;;14.95;8.52;;;;;;;13.81;56.29;97586.88;5091854;28;20028;-51
2021/12/25 10:49:52;;;;;;;9.57;7.05;;;;;;;13.87;55.66;97591.16;5092426;28;20107;-51
2021/12/25 10:52:21;;;;;;;10.90;7.05;;;;;;;13.86;56.13;97589.56;5092335;28;20071;-51
2021/12/25 10:54:56;;;;;;;10.32;6.63;;;;;;;13.77;55.56;97591.84;5092329;28;20455;-51
2021/12/25 10:57:43;;;;;;;7.93;6.30;;;;;;;13.69;55.97;97590.44;5091005;28;20353;-51
2021/12/25 11:00:11;;;;;;;9.68;7.00;;;;;;;13.58;56.32;97591.34;5090884;28;20093;-51
2021/12/25 11:02:38;;;;;;;10.18;7.63;;;;;;;13.64;55.99;97579.81;5090862;28;20020;-51
2021/12/25 11:05:28;;;;;;;12.38;7.97;;;;;;;13.92;55.23;97580.63;5092127;28;20035;-51
2021/12/25 11:08:24;;;;;;;7.78;6.63;;;;;;;14.09;54.89;97586.63;5092160;28;20102;-51
2021/12/25 11:11:06;;;;;;;10.10;7.97;;;;;;;13.89;55.17;97583.78;5092178;28;20060;-50
2021/12/25 11:13:53;;;;;;;12.70;7.63;;;;;;;13.96;55.90;97579.91;5092115;28;20028;-51
2021/12/25 11:16:31;;;;;;;9.70;6.97;;;;;;;14.31;54.71;97575.22;5090645;28;20028;-51
2021/12/25 11:19:08;;;;;;;14.82;8.73;;;;;;;14.29;53.56;97567.53;5091918;28;20166;-51
2021/12/25 11:21:35;;;;;;;11.13;8.18;;;;;;;14.15;54.19;97576.91;5091963;28;20110;-52
2021/12/25 11:24:12;;;;;;;10.48;7.40;;;;;;;14.31;54.03;97573.34;5091992;28;20016;-51
2021/12/25 11:26:39;;;;;;;9.30;7.20;;;;;;;14.41;53.53;97570.00;5091880;28;20039;-51
2021/12/25 11:29:12;;;;;;;8.73;7.07;;;;;;;14.42;53.49;97566.31;5091906;28;20026;-51
2021/12/25 11:31:39;;;;;;;8.90;6.90;;;;;;;14.45;53.21;97565.03;5091657;28;20145;-51
2021/12/25 11:34:06;;;;;;;9.05;7.57;;;;;;;14.52;52.98;97569.00;5091867;28;20055;-51
2021/12/25 11:36:32;;;;;;;12.57;8.85;;;;;;;14.44;53.15;97572.13;5091679;28;20024;-51
2021/12/25 11:38:58;;;;;;;9.20;6.97;;;;;;;14.33;53.31;97576.53;5091735;28;20021;-51
2021/12/25 11:41:30;;;;;;;13.13;7.18;;;;;;;14.25;53.52;97563.81;5091717;28;20028;-52
2021/12/25 11:43:57;;;;;;;8.80;7.53;;;;;;;14.29;53.55;97556.19;5091712;28;20103;-51
2021/12/25 11:46:36;;;;;;;8.40;6.75;;;;;;;14.27;53.50;97564.34;5091693;28;20106;-51
2021/12/25 11:49:11;;;;;;;11.68;6.97;;;;;;;14.30;53.46;97555.13;5091685;28;20119;-52
2021/12/25 11:51:40;;;;;;;10.35;7.07;;;;;;;14.27;53.49;97550.38;5090337;28;20051;-51
2021/12/25 11:55:11;;;;;;;11.45;6.80;;;;;;;14.22;53.34;97545.03;5091634;28;20107;-51
2021/12/25 11:59:48;;;;;;;9.93;7.35;;;;;;;13.84;53.87;97544.97;5093051;28;20040;-51
2021/12/25 12:02:51;;;;;;;13.57;7.93;;;;;;;13.74;54.61;97540.41;5095579;28;20486;-51
2021/12/25 12:05:28;;;;;;;25.40;20.58;;;;;;;13.78;54.53;97545.97;5095553;28;20103;-50
2021/12/25 12:08:09;;;;;;;9.98;7.72;;;;;;;13.84;54.87;97529.13;5094166;28;20413;-51
2021/12/25 12:10:57;;;;;;;11.70;7.15;;;;;;;14.06;54.25;97536.97;5095688;28;20040;-51
2021/12/25 12:13:29;;;;;;;9.82;6.60;;;;;;;14.08;53.97;97537.53;5095420;28;20066;-51
2021/12/25 12:15:57;;;;;;;11.25;7.50;;;;;;;14.17;54.24;97528.13;5095361;28;20024;-51
2021/12/25 12:18:27;;;;;;;9.00;7.43;;;;;;;14.00;54.08;97530.06;5093851;28;20035;-51
2021/12/25 12:21:05;;;;;;;19.25;14.00;;;;;;;13.92;54.19;97520.78;5095242;28;20016;-51
2021/12/25 12:23:44;;;;;;;10.00;8.43;;;;;;;13.94;54.59;97518.69;5095182;28;20027;-51
2021/12/25 12:26:13;;;;;;;10.18;6.88;;;;;;;14.13;54.41;97515.69;5095112;28;20436;-51
2021/12/25 12:28:55;;;;;;;11.45;7.43;;;;;;;14.26;54.03;97509.97;5095020;28;20082;-52
2021/12/25 12:31:40;;;;;;;11.30;7.20;;;;;;;14.18;53.96;97507.78;5095094;28;20498;-51
2021/12/25 12:34:24;;;;;;;;;;;;;;;14.15;54.10;97503.03;5095443;28;20089;-51
2021/12/25 12:36:50;;;;;;;10.68;8.25;;;;;;;14.04;54.63;97504.00;5094903;28;19912;-51
2021/12/25 12:39:20;;;;;;;10.65;7.65;;;;;;;14.09;54.80;97507.47;5094810;28;20382;-50
2021/12/25 12:41:55;;;;;;;19.30;16.92;;;;;;;14.22;54.86;97508.09;5094821;28;20055;-50
2021/12/25 12:44:31;;;;;;;11.57;7.88;;;;;;;14.38;54.98;97509.78;5093512;28;20120;-52